Fort Smith, Fort Smith Airport (CYSM)

NameFort Smith Airport
CityFort Smith
CountryCanada
ICAOCYSM
IATAYSM
Altitude205 m
CoordinatesGoogle Map
Live Air TrafficLiveATC.net
METARCYSM 210900Z 00000KT 15SM SKC M03/M04 A3022 RMK FROIN SLP248
2019-03-21 09:00:00 Wind: North (0°) 0 m/s - Visibility: 24140.1 m - Temperature: -3 °C - Dew point: -4 °C - Humidity: 92.9% - Pressure: 1023.37 hPa

Sorry, no flights used the airport in this database.